sensor_id;sensor_type;location;lat;lon;timestamp;P1;durP1;ratioP1;P2;durP2;ratioP2
51985;SDS011;38002;53.296;6.600;2023-06-01T00:03:33;7.05;;;4.13;;
51985;SDS011;38002;53.296;6.600;2023-06-01T00:08:33;17.25;;;4.50;;
51985;SDS011;38002;53.296;6.600;2023-06-01T00:13:33;10.17;;;4.60;;
51985;SDS011;38002;53.296;6.600;2023-06-01T00:18:34;12.07;;;4.80;;
51985;SDS011;38002;53.296;6.600;2023-06-01T00:23:34;15.73;;;4.70;;
51985;SDS011;38002;53.296;6.600;2023-06-01T00:28:35;11.82;;;3.50;;
51985;SDS011;38002;53.296;6.600;2023-06-01T00:33:36;9.10;;;3.80;;
51985;SDS011;38002;53.296;6.600;2023-06-01T00:38:36;15.25;;;3.92;;
51985;SDS011;38002;53.296;6.600;2023-06-01T00:43:37;9.32;;;4.32;;
51985;SDS011;38002;53.296;6.600;2023-06-01T00:48:37;8.40;;;4.22;;
51985;SDS011;38002;53.296;6.600;2023-06-01T00:53:38;11.48;;;4.38;;
51985;SDS011;38002;53.296;6.600;2023-06-01T00:58:41;10.05;;;3.42;;
51985;SDS011;38002;53.296;6.600;2023-06-01T01:03:42;13.65;;;4.15;;
51985;SDS011;38002;53.296;6.600;2023-06-01T01:08:49;9.98;;;4.35;;
51985;SDS011;38002;53.296;6.600;2023-06-01T01:24:45;10.93;;;3.83;;
51985;SDS011;38002;53.296;6.600;2023-06-01T01:29:49;10.77;;;3.72;;
51985;SDS011;38002;53.296;6.600;2023-06-01T01:34:52;9.73;;;3.83;;
51985;SDS011;38002;53.296;6.600;2023-06-01T01:39:53;13.00;;;4.90;;
51985;SDS011;38002;53.296;6.600;2023-06-01T01:44:54;10.77;;;4.20;;
51985;SDS011;38002;53.296;6.600;2023-06-01T01:49:56;8.48;;;3.60;;
51985;SDS011;38002;53.296;6.600;2023-06-01T01:55:00;10.18;;;3.42;;
51985;SDS011;38002;53.296;6.600;2023-06-01T02:00:02;5.35;;;1.92;;
51985;SDS011;38002;53.296;6.600;2023-06-01T02:05:05;8.48;;;2.80;;
51985;SDS011;38002;53.296;6.600;2023-06-01T02:10:06;7.30;;;2.95;;
51985;SDS011;38002;53.296;6.600;2023-06-01T02:15:07;7.00;;;2.60;;
51985;SDS011;38002;53.296;6.600;2023-06-01T02:20:08;10.48;;;2.85;;
51985;SDS011;38002;53.296;6.600;2023-06-01T02:25:09;10.10;;;2.58;;
51985;SDS011;38002;53.296;6.600;2023-06-01T02:30:10;6.38;;;3.10;;
51985;SDS011;38002;53.296;6.600;2023-06-01T02:35:11;9.17;;;2.90;;
51985;SDS011;38002;53.296;6.600;2023-06-01T02:40:11;8.15;;;3.47;;
51985;SDS011;38002;53.296;6.600;2023-06-01T02:45:12;13.10;;;2.88;;
51985;SDS011;38002;53.296;6.600;2023-06-01T02:50:12;7.40;;;3.10;;
51985;SDS011;38002;53.296;6.600;2023-06-01T02:55:13;12.70;;;3.45;;
51985;SDS011;38002;53.296;6.600;2023-06-01T03:00:13;18.65;;;4.22;;
51985;SDS011;38002;53.296;6.600;2023-06-01T03:05:17;5.03;;;4.20;;
51985;SDS011;38002;53.296;6.600;2023-06-01T03:10:17;11.63;;;4.32;;
51985;SDS011;38002;53.296;6.600;2023-06-01T03:15:18;16.70;;;5.18;;
51985;SDS011;38002;53.296;6.600;2023-06-01T03:20:18;9.60;;;4.07;;
51985;SDS011;38002;53.296;6.600;2023-06-01T03:25:19;8.95;;;3.00;;
51985;SDS011;38002;53.296;6.600;2023-06-01T03:30:19;14.70;;;5.45;;
51985;SDS011;38002;53.296;6.600;2023-06-01T03:35:21;4.90;;;3.70;;
51985;SDS011;38002;53.296;6.600;2023-06-01T03:40:21;10.60;;;3.53;;
51985;SDS011;38002;53.296;6.600;2023-06-01T03:45:22;11.57;;;3.95;;
51985;SDS011;38002;53.296;6.600;2023-06-01T03:50:22;12.70;;;3.63;;
51985;SDS011;38002;53.296;6.600;2023-06-01T03:55:23;8.25;;;3.30;;
51985;SDS011;38002;53.296;6.600;2023-06-01T04:00:23;10.23;;;3.78;;
51985;SDS011;38002;53.296;6.600;2023-06-01T04:05:25;9.82;;;3.47;;
51985;SDS011;38002;53.296;6.600;2023-06-01T04:10:26;5.25;;;3.25;;
51985;SDS011;38002;53.296;6.600;2023-06-01T04:15:27;6.70;;;3.78;;
51985;SDS011;38002;53.296;6.600;2023-06-01T04:20:27;10.98;;;4.63;;
51985;SDS011;38002;53.296;6.600;2023-06-01T04:25:27;5.80;;;3.30;;
51985;SDS011;38002;53.296;6.600;2023-06-01T04:30:28;8.05;;;3.83;;
51985;SDS011;38002;53.296;6.600;2023-06-01T04:35:28;8.45;;;3.83;;
51985;SDS011;38002;53.296;6.600;2023-06-01T04:40:29;7.30;;;3.58;;
51985;SDS011;38002;53.296;6.600;2023-06-01T04:45:30;8.00;;;3.80;;
51985;SDS011;38002;53.296;6.600;2023-06-01T04:50:31;7.18;;;3.88;;
51985;SDS011;38002;53.296;6.600;2023-06-01T04:55:31;6.53;;;3.22;;
51985;SDS011;38002;53.296;6.600;2023-06-01T05:00:32;3.80;;;2.63;;
51985;SDS011;38002;53.296;6.600;2023-06-01T05:05:32;4.50;;;1.83;;
51985;SDS011;38002;53.296;6.600;2023-06-01T05:10:33;4.95;;;2.47;;
51985;SDS011;38002;53.296;6.600;2023-06-01T05:15:33;3.70;;;2.88;;
51985;SDS011;38002;53.296;6.600;2023-06-01T05:20:34;5.78;;;3.17;;
51985;SDS011;38002;53.296;6.600;2023-06-01T05:25:35;8.67;;;2.70;;
51985;SDS011;38002;53.296;6.600;2023-06-01T05:30:35;3.60;;;2.42;;
51985;SDS011;38002;53.296;6.600;2023-06-01T05:35:36;6.32;;;2.83;;
51985;SDS011;38002;53.296;6.600;2023-06-01T05:40:37;4.28;;;2.40;;
51985;SDS011;38002;53.296;6.600;2023-06-01T05:45:37;2.30;;;1.90;;
51985;SDS011;38002;53.296;6.600;2023-06-01T05:50:37;6.93;;;2.50;;
51985;SDS011;38002;53.296;6.600;2023-06-01T05:55:38;2.38;;;2.00;;
51985;SDS011;38002;53.296;6.600;2023-06-01T06:00:38;8.50;;;2.17;;
51985;SDS011;38002;53.296;6.600;2023-06-01T06:05:39;5.85;;;1.45;;
51985;SDS011;38002;53.296;6.600;2023-06-01T06:10:40;3.00;;;2.15;;
51985;SDS011;38002;53.296;6.600;2023-06-01T06:15:41;4.23;;;2.10;;
51985;SDS011;38002;53.296;6.600;2023-06-01T06:20:41;4.18;;;1.83;;
51985;SDS011;38002;53.296;6.600;2023-06-01T06:25:42;2.63;;;1.10;;
51985;SDS011;38002;53.296;6.600;2023-06-01T06:30:43;2.20;;;1.20;;
51985;SDS011;38002;53.296;6.600;2023-06-01T06:35:43;1.13;;;1.05;;
51985;SDS011;38002;53.296;6.600;2023-06-01T06:40:44;4.57;;;2.05;;
51985;SDS011;38002;53.296;6.600;2023-06-01T06:45:44;5.72;;;2.33;;
51985;SDS011;38002;53.296;6.600;2023-06-01T06:50:45;2.22;;;2.03;;
51985;SDS011;38002;53.296;6.600;2023-06-01T06:55:45;5.13;;;2.10;;
51985;SDS011;38002;53.296;6.600;2023-06-01T07:00:46;4.20;;;2.50;;
51985;SDS011;38002;53.296;6.600;2023-06-01T07:05:46;6.95;;;2.33;;
51985;SDS011;38002;53.296;6.600;2023-06-01T07:10:47;3.17;;;2.50;;
51985;SDS011;38002;53.296;6.600;2023-06-01T07:15:48;5.85;;;2.70;;
51985;SDS011;38002;53.296;6.600;2023-06-01T07:20:48;4.13;;;2.72;;
51985;SDS011;38002;53.296;6.600;2023-06-01T07:25:49;7.55;;;3.40;;
51985;SDS011;38002;53.296;6.600;2023-06-01T07:30:49;5.70;;;2.88;;
51985;SDS011;38002;53.296;6.600;2023-06-01T07:35:49;7.07;;;2.55;;
51985;SDS011;38002;53.296;6.600;2023-06-01T07:40:53;1.63;;;1.52;;
51985;SDS011;38002;53.296;6.600;2023-06-01T07:45:53;3.42;;;1.65;;
51985;SDS011;38002;53.296;6.600;2023-06-01T07:50:55;9.82;;;2.20;;
51985;SDS011;38002;53.296;6.600;2023-06-01T07:55:55;4.23;;;2.23;;
51985;SDS011;38002;53.296;6.600;2023-06-01T08:00:56;8.38;;;2.35;;
51985;SDS011;38002;53.296;6.600;2023-06-01T08:05:57;6.90;;;2.33;;
51985;SDS011;38002;53.296;6.600;2023-06-01T08:10:59;8.68;;;2.40;;
51985;SDS011;38002;53.296;6.600;2023-06-01T08:16:00;4.25;;;2.47;;
51985;SDS011;38002;53.296;6.600;2023-06-01T08:21:00;6.80;;;3.23;;
51985;SDS011;38002;53.296;6.600;2023-06-01T08:26:01;9.50;;;2.63;;
51985;SDS011;38002;53.296;6.600;2023-06-01T08:31:02;13.13;;;3.85;;
51985;SDS011;38002;53.296;6.600;2023-06-01T08:36:02;12.75;;;2.78;;
51985;SDS011;38002;53.296;6.600;2023-06-01T08:41:03;6.68;;;2.90;;
51985;SDS011;38002;53.296;6.600;2023-06-01T08:46:14;8.03;;;3.10;;
51985;SDS011;38002;53.296;6.600;2023-06-01T08:51:16;6.78;;;2.25;;
51985;SDS011;38002;53.296;6.600;2023-06-01T08:56:18;9.18;;;2.25;;
51985;SDS011;38002;53.296;6.600;2023-06-01T09:06:21;5.68;;;2.38;;
51985;SDS011;38002;53.296;6.600;2023-06-01T09:11:22;17.23;;;3.30;;
51985;SDS011;38002;53.296;6.600;2023-06-01T09:16:26;7.88;;;3.50;;
51985;SDS011;38002;53.296;6.600;2023-06-01T09:21:35;10.15;;;3.90;;
51985;SDS011;38002;53.296;6.600;2023-06-01T09:26:36;14.40;;;2.33;;
51985;SDS011;38002;53.296;6.600;2023-06-01T09:31:37;7.20;;;2.33;;
51985;SDS011;38002;53.296;6.600;2023-06-01T09:36:42;13.73;;;2.63;;
51985;SDS011;38002;53.296;6.600;2023-06-01T09:46:54;10.00;;;3.42;;
51985;SDS011;38002;53.296;6.600;2023-06-01T09:57:06;5.10;;;2.05;;
51985;SDS011;38002;53.296;6.600;2023-06-01T10:02:11;7.13;;;2.25;;
51985;SDS011;38002;53.296;6.600;2023-06-01T10:07:16;12.45;;;2.83;;
51985;SDS011;38002;53.296;6.600;2023-06-01T10:12:17;10.85;;;3.05;;
51985;SDS011;38002;53.296;6.600;2023-06-01T10:17:19;8.70;;;2.63;;
51985;SDS011;38002;53.296;6.600;2023-06-01T10:22:19;7.53;;;2.53;;
51985;SDS011;38002;53.296;6.600;2023-06-01T10:27:27;4.15;;;2.47;;
51985;SDS011;38002;53.296;6.600;2023-06-01T10:37:37;9.90;;;2.55;;
51985;SDS011;38002;53.296;6.600;2023-06-01T10:42:38;11.43;;;2.60;;
51985;SDS011;38002;53.296;6.600;2023-06-01T10:52:40;5.93;;;2.77;;
51985;SDS011;38002;53.296;6.600;2023-06-01T10:57:41;10.27;;;4.70;;
51985;SDS011;38002;53.296;6.600;2023-06-01T11:08:05;7.65;;;2.78;;
51985;SDS011;38002;53.296;6.600;2023-06-01T11:13:11;6.63;;;2.00;;
51985;SDS011;38002;53.296;6.600;2023-06-01T11:18:46;8.73;;;2.17;;
51985;SDS011;38002;53.296;6.600;2023-06-01T11:23:39;6.07;;;2.17;;
51985;SDS011;38002;53.296;6.600;2023-06-01T11:28:41;7.67;;;2.23;;
51985;SDS011;38002;53.296;6.600;2023-06-01T11:33:50;11.68;;;3.65;;
51985;SDS011;38002;53.296;6.600;2023-06-01T11:38:53;6.40;;;2.50;;
51985;SDS011;38002;53.296;6.600;2023-06-01T11:43:56;7.65;;;2.35;;
51985;SDS011;38002;53.296;6.600;2023-06-01T11:49:04;9.57;;;1.98;;
51985;SDS011;38002;53.296;6.600;2023-06-01T11:54:05;13.00;;;2.75;;
51985;SDS011;38002;53.296;6.600;2023-06-01T11:59:06;12.90;;;3.30;;
51985;SDS011;38002;53.296;6.600;2023-06-01T12:04:13;7.78;;;3.05;;
51985;SDS011;38002;53.296;6.600;2023-06-01T12:09:18;11.50;;;3.33;;
51985;SDS011;38002;53.296;6.600;2023-06-01T12:14:20;8.95;;;2.75;;
51985;SDS011;38002;53.296;6.600;2023-06-01T12:19:20;12.38;;;3.03;;
51985;SDS011;38002;53.296;6.600;2023-06-01T12:24:31;12.90;;;2.80;;
51985;SDS011;38002;53.296;6.600;2023-06-01T12:29:35;11.40;;;2.90;;
51985;SDS011;38002;53.296;6.600;2023-06-01T12:35:03;14.10;;;3.80;;
51985;SDS011;38002;53.296;6.600;2023-06-01T12:40:06;9.77;;;3.00;;
51985;SDS011;38002;53.296;6.600;2023-06-01T12:45:07;9.80;;;3.50;;
51985;SDS011;38002;53.296;6.600;2023-06-01T12:50:08;9.60;;;2.70;;
51985;SDS011;38002;53.296;6.600;2023-06-01T12:55:10;15.93;;;3.45;;
51985;SDS011;38002;53.296;6.600;2023-06-01T13:00:11;6.25;;;2.50;;
51985;SDS011;38002;53.296;6.600;2023-06-01T13:05:12;9.02;;;3.53;;
51985;SDS011;38002;53.296;6.600;2023-06-01T13:10:13;5.27;;;1.93;;
51985;SDS011;38002;53.296;6.600;2023-06-01T13:15:14;5.03;;;1.87;;
51985;SDS011;38002;53.296;6.600;2023-06-01T13:20:15;4.00;;;2.03;;
51985;SDS011;38002;53.296;6.600;2023-06-01T13:25:16;9.18;;;2.50;;
51985;SDS011;38002;53.296;6.600;2023-06-01T13:30:17;7.83;;;1.50;;
51985;SDS011;38002;53.296;6.600;2023-06-01T13:35:17;3.67;;;1.43;;
51985;SDS011;38002;53.296;6.600;2023-06-01T13:40:18;6.00;;;1.70;;
51985;SDS011;38002;53.296;6.600;2023-06-01T13:45:22;5.55;;;1.55;;
51985;SDS011;38002;53.296;6.600;2023-06-01T13:50:23;4.20;;;1.80;;
51985;SDS011;38002;53.296;6.600;2023-06-01T13:55:24;1.37;;;1.20;;
51985;SDS011;38002;53.296;6.600;2023-06-01T14:00:26;3.17;;;1.08;;
51985;SDS011;38002;53.296;6.600;2023-06-01T14:05:27;5.53;;;2.28;;
51985;SDS011;38002;53.296;6.600;2023-06-01T14:10:28;4.20;;;1.17;;
51985;SDS011;38002;53.296;6.600;2023-06-01T14:15:28;6.65;;;1.50;;
51985;SDS011;38002;53.296;6.600;2023-06-01T14:20:29;4.63;;;1.20;;
51985;SDS011;38002;53.296;6.600;2023-06-01T14:25:30;4.13;;;1.20;;
51985;SDS011;38002;53.296;6.600;2023-06-01T14:30:30;9.07;;;2.23;;
51985;SDS011;38002;53.296;6.600;2023-06-01T14:35:31;4.10;;;1.50;;
51985;SDS011;38002;53.296;6.600;2023-06-01T14:40:33;5.20;;;1.77;;
51985;SDS011;38002;53.296;6.600;2023-06-01T14:45:33;5.13;;;1.27;;
51985;SDS011;38002;53.296;6.600;2023-06-01T14:50:34;2.83;;;1.23;;
51985;SDS011;38002;53.296;6.600;2023-06-01T14:55:34;6.77;;;1.27;;
51985;SDS011;38002;53.296;6.600;2023-06-01T15:00:35;3.43;;;1.30;;
51985;SDS011;38002;53.296;6.600;2023-06-01T15:05:36;8.00;;;1.58;;
51985;SDS011;38002;53.296;6.600;2023-06-01T15:10:37;7.87;;;1.67;;
51985;SDS011;38002;53.296;6.600;2023-06-01T15:15:37;7.27;;;2.07;;
51985;SDS011;38002;53.296;6.600;2023-06-01T15:20:47;7.47;;;1.42;;
51985;SDS011;38002;53.296;6.600;2023-06-01T15:25:51;3.42;;;1.50;;
51985;SDS011;38002;53.296;6.600;2023-06-01T15:30:52;8.80;;;1.40;;
51985;SDS011;38002;53.296;6.600;2023-06-01T15:35:52;9.43;;;1.47;;
51985;SDS011;38002;53.296;6.600;2023-06-01T15:40:53;9.57;;;1.90;;
51985;SDS011;38002;53.296;6.600;2023-06-01T15:45:53;4.10;;;1.40;;
51985;SDS011;38002;53.296;6.600;2023-06-01T15:50:54;7.47;;;1.70;;
51985;SDS011;38002;53.296;6.600;2023-06-01T15:55:54;9.57;;;1.37;;
51985;SDS011;38002;53.296;6.600;2023-06-01T16:00:55;9.07;;;1.90;;
51985;SDS011;38002;53.296;6.600;2023-06-01T16:05:55;4.77;;;1.30;;
51985;SDS011;38002;53.296;6.600;2023-06-01T16:10:56;13.07;;;1.87;;
51985;SDS011;38002;53.296;6.600;2023-06-01T16:15:56;6.97;;;1.43;;
51985;SDS011;38002;53.296;6.600;2023-06-01T16:20:57;9.82;;;1.85;;
51985;SDS011;38002;53.296;6.600;2023-06-01T16:25:57;5.93;;;1.60;;
51985;SDS011;38002;53.296;6.600;2023-06-01T16:30:58;14.03;;;1.90;;
51985;SDS011;38002;53.296;6.600;2023-06-01T16:35:58;7.37;;;1.50;;
51985;SDS011;38002;53.296;6.600;2023-06-01T16:40:59;13.17;;;2.27;;
51985;SDS011;38002;53.296;6.600;2023-06-01T16:45:59;13.37;;;2.10;;
51985;SDS011;38002;53.296;6.600;2023-06-01T16:50:59;5.10;;;1.77;;
51985;SDS011;38002;53.296;6.600;2023-06-01T16:56:00;12.03;;;2.53;;
51985;SDS011;38002;53.296;6.600;2023-06-01T17:01:00;5.97;;;1.67;;
51985;SDS011;38002;53.296;6.600;2023-06-01T17:06:01;10.00;;;2.00;;
51985;SDS011;38002;53.296;6.600;2023-06-01T17:11:01;8.40;;;2.13;;
51985;SDS011;38002;53.296;6.600;2023-06-01T17:16:02;8.30;;;1.53;;
51985;SDS011;38002;53.296;6.600;2023-06-01T17:21:05;6.90;;;2.15;;
51985;SDS011;38002;53.296;6.600;2023-06-01T17:26:05;9.75;;;2.00;;
51985;SDS011;38002;53.296;6.600;2023-06-01T17:31:06;9.52;;;2.33;;
51985;SDS011;38002;53.296;6.600;2023-06-01T17:36:06;8.33;;;2.10;;
51985;SDS011;38002;53.296;6.600;2023-06-01T17:41:07;10.53;;;2.30;;
51985;SDS011;38002;53.296;6.600;2023-06-01T17:46:08;8.20;;;1.80;;
51985;SDS011;38002;53.296;6.600;2023-06-01T17:51:08;7.33;;;1.90;;
51985;SDS011;38002;53.296;6.600;2023-06-01T17:56:08;3.72;;;2.00;;
51985;SDS011;38002;53.296;6.600;2023-06-01T18:01:09;4.95;;;1.98;;
51985;SDS011;38002;53.296;6.600;2023-06-01T18:06:10;14.63;;;2.50;;
51985;SDS011;38002;53.296;6.600;2023-06-01T18:11:10;13.15;;;2.47;;
51985;SDS011;38002;53.296;6.600;2023-06-01T18:16:10;7.70;;;2.33;;
51985;SDS011;38002;53.296;6.600;2023-06-01T18:21:14;12.90;;;2.30;;
51985;SDS011;38002;53.296;6.600;2023-06-01T18:26:17;8.52;;;2.22;;
51985;SDS011;38002;53.296;6.600;2023-06-01T18:31:17;23.98;;;3.28;;
51985;SDS011;38002;53.296;6.600;2023-06-01T18:36:18;6.68;;;3.10;;
51985;SDS011;38002;53.296;6.600;2023-06-01T18:41:19;11.73;;;2.55;;
51985;SDS011;38002;53.296;6.600;2023-06-01T18:46:19;7.13;;;2.53;;
51985;SDS011;38002;53.296;6.600;2023-06-01T18:51:20;10.90;;;2.93;;
51985;SDS011;38002;53.296;6.600;2023-06-01T18:56:21;8.88;;;2.40;;
51985;SDS011;38002;53.296;6.600;2023-06-01T19:01:21;7.28;;;2.60;;
51985;SDS011;38002;53.296;6.600;2023-06-01T19:06:22;12.90;;;2.28;;
51985;SDS011;38002;53.296;6.600;2023-06-01T19:11:22;11.47;;;2.67;;
51985;SDS011;38002;53.296;6.600;2023-06-01T19:16:27;12.27;;;3.05;;
51985;SDS011;38002;53.296;6.600;2023-06-01T19:21:28;6.95;;;2.38;;
51985;SDS011;38002;53.296;6.600;2023-06-01T19:26:31;13.48;;;3.33;;
51985;SDS011;38002;53.296;6.600;2023-06-01T19:31:34;11.70;;;3.30;;
51985;SDS011;38002;53.296;6.600;2023-06-01T19:41:43;5.07;;;2.00;;
51985;SDS011;38002;53.296;6.600;2023-06-01T19:46:43;8.23;;;2.42;;
51985;SDS011;38002;53.296;6.600;2023-06-01T19:51:44;25.88;;;3.45;;
51985;SDS011;38002;53.296;6.600;2023-06-01T19:56:45;10.63;;;2.97;;
51985;SDS011;38002;53.296;6.600;2023-06-01T20:01:47;15.40;;;2.30;;
51985;SDS011;38002;53.296;6.600;2023-06-01T20:06:49;8.13;;;2.60;;
51985;SDS011;38002;53.296;6.600;2023-06-01T20:16:52;10.55;;;2.33;;
51985;SDS011;38002;53.296;6.600;2023-06-01T20:21:53;10.90;;;2.38;;
51985;SDS011;38002;53.296;6.600;2023-06-01T20:26:56;10.52;;;2.90;;
51985;SDS011;38002;53.296;6.600;2023-06-01T20:31:59;11.07;;;2.42;;
51985;SDS011;38002;53.296;6.600;2023-06-01T20:37:01;8.60;;;2.25;;
51985;SDS011;38002;53.296;6.600;2023-06-01T20:42:04;8.52;;;2.78;;
51985;SDS011;38002;53.296;6.600;2023-06-01T20:47:05;10.93;;;2.20;;
51985;SDS011;38002;53.296;6.600;2023-06-01T20:52:06;19.35;;;4.05;;
51985;SDS011;38002;53.296;6.600;2023-06-01T20:57:08;9.32;;;2.95;;
51985;SDS011;38002;53.296;6.600;2023-06-01T21:02:09;8.75;;;2.83;;
51985;SDS011;38002;53.296;6.600;2023-06-01T21:07:11;11.05;;;3.80;;
51985;SDS011;38002;53.296;6.600;2023-06-01T21:12:12;7.72;;;2.30;;
51985;SDS011;38002;53.296;6.600;2023-06-01T21:17:12;12.30;;;2.40;;
51985;SDS011;38002;53.296;6.600;2023-06-01T21:22:13;9.98;;;2.22;;
51985;SDS011;38002;53.296;6.600;2023-06-01T21:27:14;10.02;;;1.85;;
51985;SDS011;38002;53.296;6.600;2023-06-01T21:32:14;9.05;;;2.60;;
51985;SDS011;38002;53.296;6.600;2023-06-01T21:37:15;6.43;;;2.28;;
51985;SDS011;38002;53.296;6.600;2023-06-01T21:42:15;5.30;;;2.08;;
51985;SDS011;38002;53.296;6.600;2023-06-01T21:47:16;13.80;;;2.42;;
51985;SDS011;38002;53.296;6.600;2023-06-01T21:52:16;6.75;;;1.95;;
51985;SDS011;38002;53.296;6.600;2023-06-01T21:57:17;12.93;;;2.85;;
51985;SDS011;38002;53.296;6.600;2023-06-01T22:02:17;10.45;;;1.90;;
51985;SDS011;38002;53.296;6.600;2023-06-01T22:07:17;9.73;;;2.90;;
51985;SDS011;38002;53.296;6.600;2023-06-01T22:12:19;8.07;;;2.17;;
51985;SDS011;38002;53.296;6.600;2023-06-01T22:17:20;12.95;;;3.05;;
51985;SDS011;38002;53.296;6.600;2023-06-01T22:22:20;6.15;;;1.85;;
51985;SDS011;38002;53.296;6.600;2023-06-01T22:27:21;22.17;;;3.38;;
51985;SDS011;38002;53.296;6.600;2023-06-01T22:32:22;10.33;;;1.97;;
51985;SDS011;38002;53.296;6.600;2023-06-01T22:37:22;11.30;;;2.05;;
51985;SDS011;38002;53.296;6.600;2023-06-01T22:42:23;14.07;;;2.10;;
51985;SDS011;38002;53.296;6.600;2023-06-01T22:47:23;11.55;;;2.20;;
51985;SDS011;38002;53.296;6.600;2023-06-01T22:52:24;9.05;;;1.73;;
51985;SDS011;38002;53.296;6.600;2023-06-01T22:57:28;18.20;;;2.60;;
51985;SDS011;38002;53.296;6.600;2023-06-01T23:02:29;9.88;;;2.28;;
51985;SDS011;38002;53.296;6.600;2023-06-01T23:07:30;15.13;;;2.60;;
51985;SDS011;38002;53.296;6.600;2023-06-01T23:12:31;16.88;;;3.45;;
51985;SDS011;38002;53.296;6.600;2023-06-01T23:17:34;14.23;;;2.60;;
51985;SDS011;38002;53.296;6.600;2023-06-01T23:22:35;18.23;;;2.95;;
51985;SDS011;38002;53.296;6.600;2023-06-01T23:27:39;10.75;;;2.15;;
51985;SDS011;38002;53.296;6.600;2023-06-01T23:32:39;16.42;;;2.13;;
51985;SDS011;38002;53.296;6.600;2023-06-01T23:37:40;9.13;;;2.50;;
51985;SDS011;38002;53.296;6.600;2023-06-01T23:42:45;7.53;;;2.05;;
51985;SDS011;38002;53.296;6.600;2023-06-01T23:47:45;13.50;;;2.47;;
51985;SDS011;38002;53.296;6.600;2023-06-01T23:52:46;16.67;;;2.55;;
51985;SDS011;38002;53.296;6.600;2023-06-01T23:57:46;11.25;;;2.95;;
